createdAt,value
2023-06-29T00:01:27.894Z,4.91
2023-06-29T00:04:07.665Z,4.80
2023-06-29T00:06:47.028Z,4.75
2023-06-29T00:09:26.345Z,4.82
2023-06-29T00:12:05.666Z,5.05
2023-06-29T00:14:50.045Z,5.14
2023-06-29T00:17:29.423Z,5.33
2023-06-29T00:20:11.927Z,5.48
2023-06-29T00:22:51.439Z,5.31
2023-06-29T00:25:31.294Z,5.35
2023-06-29T00:28:11.359Z,5.06
2023-06-29T00:30:56.063Z,5.12
2023-06-29T00:33:35.482Z,5.38
2023-06-29T00:36:14.887Z,5.49
2023-06-29T00:38:55.013Z,5.08
2023-06-29T00:41:34.482Z,5.28
2023-06-29T00:44:13.812Z,5.21
2023-06-29T00:47:01.058Z,5.67
2023-06-29T00:49:40.883Z,5.64
2023-06-29T00:52:20.695Z,5.42
2023-06-29T00:55:03.525Z,5.73
2023-06-29T00:57:43.060Z,5.56
2023-06-29T01:00:23.405Z,5.24
2023-06-29T01:03:07.966Z,5.40
2023-06-29T01:05:47.708Z,5.27
2023-06-29T01:08:33.785Z,5.17
2023-06-29T01:11:14.633Z,5.41
2023-06-29T01:13:55.932Z,5.66
2023-06-29T01:16:38.295Z,5.94
2023-06-29T01:19:30.660Z,5.44
2023-06-29T01:22:15.896Z,5.57
2023-06-29T01:25:01.642Z,5.70
2023-06-29T01:27:45.606Z,5.87
2023-06-29T01:30:25.790Z,5.67
2023-06-29T01:33:05.162Z,5.84
2023-06-29T01:35:44.857Z,5.94
2023-06-29T01:38:34.924Z,5.54
2023-06-29T01:41:24.357Z,5.64
2023-06-29T01:44:05.440Z,5.86
2023-06-29T01:46:45.575Z,5.63
2023-06-29T01:49:25.205Z,5.99
2023-06-29T01:52:04.651Z,5.42
2023-06-29T01:54:44.306Z,5.60
2023-06-29T01:57:28.729Z,5.67
2023-06-29T02:00:08.399Z,6.14
2023-06-29T02:02:47.805Z,5.81
2023-06-29T02:05:27.273Z,5.71
2023-06-29T02:08:06.612Z,5.67
2023-06-29T02:10:45.955Z,5.85
2023-06-29T02:13:30.354Z,5.77
2023-06-29T02:16:09.809Z,6.13
2023-06-29T02:18:49.166Z,5.82
2023-06-29T02:21:28.457Z,6.22
2023-06-29T02:24:07.782Z,6.03
2023-06-29T02:26:47.089Z,5.87
2023-06-29T02:29:31.956Z,6.14
2023-06-29T02:32:12.036Z,5.64
2023-06-29T02:34:51.319Z,6.24
2023-06-29T02:37:30.654Z,6.26
2023-06-29T02:40:10.207Z,6.23
2023-06-29T02:42:49.965Z,5.88
2023-06-29T02:45:34.369Z,6.01
2023-06-29T02:48:14.119Z,6.29
2023-06-29T02:50:53.525Z,6.13
2023-06-29T02:53:32.886Z,6.12
2023-06-29T02:56:12.588Z,5.95
2023-06-29T02:58:51.930Z,6.19
2023-06-29T03:01:36.425Z,6.32
2023-06-29T03:04:15.768Z,6.48
2023-06-29T03:06:55.152Z,6.50
2023-06-29T03:09:34.479Z,6.16
2023-06-29T03:12:15.677Z,6.07
2023-06-29T03:14:55.017Z,6.16
2023-06-29T03:17:39.461Z,6.42
2023-06-29T03:20:20.917Z,6.38
2023-06-29T03:23:00.256Z,6.54
2023-06-29T03:25:39.704Z,6.32
2023-06-29T03:28:19.014Z,6.22
2023-06-29T03:30:58.448Z,6.57
2023-06-29T03:33:42.850Z,6.33
2023-06-29T03:36:22.183Z,6.35
2023-06-29T03:39:01.522Z,6.38
2023-06-29T03:41:40.903Z,6.50
2023-06-29T03:44:20.251Z,6.67
2023-06-29T03:47:00.137Z,6.88
2023-06-29T03:49:44.722Z,6.54
2023-06-29T03:52:24.076Z,6.24
2023-06-29T03:55:03.400Z,6.47
2023-06-29T03:57:42.688Z,6.51
2023-06-29T04:00:22.821Z,6.93
2023-06-29T04:03:02.214Z,6.78
2023-06-29T04:05:47.235Z,6.65
2023-06-29T04:08:26.565Z,6.95
2023-06-29T04:11:05.882Z,6.70
2023-06-29T04:13:45.180Z,6.71
2023-06-29T04:16:24.721Z,7.18
2023-06-29T04:19:04.141Z,6.76
2023-06-29T04:21:48.539Z,6.77
2023-06-29T04:24:27.848Z,7.09
2023-06-29T04:27:07.942Z,7.12
2023-06-29T04:29:47.300Z,7.62
2023-06-29T04:32:26.762Z,7.57
2023-06-29T04:35:06.323Z,7.18
2023-06-29T04:37:50.785Z,7.36
2023-06-29T04:40:30.406Z,7.39
2023-06-29T04:43:09.794Z,7.21
2023-06-29T04:45:49.076Z,7.42
2023-06-29T04:48:31.192Z,7.57
2023-06-29T04:51:10.623Z,7.55
2023-06-29T04:53:55.020Z,7.00
2023-06-29T04:56:34.378Z,7.19
2023-06-29T04:59:13.694Z,7.02
2023-06-29T05:01:53.233Z,7.22
2023-06-29T05:04:32.708Z,7.55
2023-06-29T05:07:12.629Z,7.35
2023-06-29T05:09:56.987Z,7.25
2023-06-29T05:12:36.285Z,7.01
2023-06-29T05:15:17.811Z,7.43
2023-06-29T05:17:57.212Z,7.58
2023-06-29T05:20:37.320Z,7.59
2023-06-29T05:23:16.766Z,7.41
2023-06-29T05:26:01.229Z,7.80
2023-06-29T05:28:42.821Z,7.99
2023-06-29T05:31:29.124Z,7.81
2023-06-29T05:34:08.470Z,7.19
2023-06-29T05:36:47.841Z,7.58
2023-06-29T05:39:27.290Z,7.39
2023-06-29T05:42:12.188Z,8.09
2023-06-29T05:44:51.455Z,7.30
2023-06-29T05:47:30.874Z,7.83
2023-06-29T05:50:10.425Z,7.77
2023-06-29T05:52:51.392Z,7.96
2023-06-29T05:55:31.142Z,7.52
2023-06-29T05:58:15.625Z,7.57
2023-06-29T06:00:54.986Z,7.48
2023-06-29T06:03:35.452Z,7.50
2023-06-29T06:06:14.975Z,7.71
2023-06-29T06:08:54.455Z,7.82
2023-06-29T06:11:33.813Z,7.61
2023-06-29T06:14:18.182Z,7.66
2023-06-29T06:16:57.515Z,7.90
2023-06-29T06:19:36.911Z,8.24
2023-06-29T06:22:16.337Z,8.14
2023-06-29T06:24:55.771Z,7.61
2023-06-29T06:27:35.110Z,7.83
2023-06-29T06:30:20.203Z,8.04
2023-06-29T06:32:59.648Z,7.76
2023-06-29T06:35:39.943Z,7.33
2023-06-29T06:38:19.835Z,7.18
2023-06-29T06:40:59.528Z,7.72
2023-06-29T06:43:38.997Z,7.49
2023-06-29T06:46:23.461Z,7.43
2023-06-29T06:49:02.809Z,7.57
2023-06-29T06:51:42.503Z,7.08
2023-06-29T06:54:22.803Z,6.99
2023-06-29T06:57:02.317Z,7.40
2023-06-29T06:59:42.620Z,7.25
2023-06-29T07:02:27.211Z,7.32
2023-06-29T07:05:07.509Z,6.99
2023-06-29T07:07:48.485Z,6.85
2023-06-29T07:10:28.169Z,6.44
2023-06-29T07:13:07.535Z,6.06
2023-06-29T07:15:46.871Z,6.56
2023-06-29T07:18:31.302Z,6.69
2023-06-29T07:26:37.313Z,5.99
2023-06-29T07:29:16.648Z,5.96
2023-06-29T07:31:55.946Z,5.88
2023-06-29T07:34:40.391Z,5.93
2023-06-29T07:37:19.705Z,5.91
2023-06-29T07:39:59.014Z,5.79
2023-06-29T07:42:39.857Z,5.93
2023-06-29T07:45:20.976Z,6.03
2023-06-29T07:48:00.416Z,6.07
2023-06-29T07:50:44.862Z,6.02
2023-06-29T07:53:24.176Z,5.62
2023-06-29T07:56:03.585Z,5.75
2023-06-29T07:58:43.117Z,5.35
2023-06-29T08:01:22.532Z,5.84
2023-06-29T08:04:03.528Z,5.67
2023-06-29T08:06:51.762Z,5.29
2023-06-29T08:09:31.570Z,5.32
2023-06-29T08:12:11.383Z,5.40
2023-06-29T08:14:50.695Z,5.18
2023-06-29T08:17:30.074Z,5.25
2023-06-29T08:20:13.084Z,5.26
2023-06-29T08:22:58.111Z,5.14
2023-06-29T08:25:37.516Z,5.02
2023-06-29T08:28:16.921Z,5.09
2023-06-29T08:30:56.272Z,4.95
2023-06-29T08:33:35.613Z,4.84
2023-06-29T08:36:14.943Z,4.83
2023-06-29T08:38:59.309Z,4.90
2023-06-29T08:41:38.682Z,4.77
2023-06-29T08:44:18.116Z,4.77
2023-06-29T08:46:57.727Z,4.67
2023-06-29T08:49:39.564Z,4.49
2023-06-29T08:52:24.829Z,4.52
2023-06-29T08:55:11.137Z,4.33
2023-06-29T08:57:50.954Z,4.50
2023-06-29T09:00:31.062Z,4.48
2023-06-29T09:03:12.482Z,4.16
2023-06-29T09:05:53.086Z,4.23
2023-06-29T09:08:32.498Z,4.44
2023-06-29T09:11:17.440Z,4.46
2023-06-29T09:13:57.728Z,4.32
2023-06-29T09:16:37.389Z,3.84
2023-06-29T09:19:16.891Z,3.94
2023-06-29T09:21:56.531Z,3.85
2023-06-29T09:24:43.754Z,4.30
2023-06-29T09:27:37.607Z,4.04
2023-06-29T09:30:25.777Z,3.84
2023-06-29T09:33:05.140Z,4.01
2023-06-29T09:35:46.462Z,3.97
2023-06-29T09:38:26.152Z,3.77
2023-06-29T09:41:05.854Z,4.10
2023-06-29T09:43:51.497Z,4.09
2023-06-29T09:46:34.353Z,3.78
2023-06-29T09:49:16.418Z,3.81
2023-06-29T09:51:56.746Z,3.90
2023-06-29T09:54:36.168Z,3.76
2023-06-29T09:57:17.270Z,3.61
2023-06-29T10:00:02.916Z,3.66
2023-06-29T10:02:42.391Z,3.34
2023-06-29T10:05:22.898Z,3.81
2023-06-29T10:08:02.895Z,3.89
2023-06-29T10:10:45.045Z,3.67
2023-06-29T10:13:26.894Z,3.58
2023-06-29T10:16:15.732Z,3.61
2023-06-29T10:18:59.124Z,3.64
2023-06-29T10:21:38.595Z,3.79
2023-06-29T10:24:22.321Z,3.74
2023-06-29T10:27:04.186Z,3.57
2023-06-29T10:29:52.906Z,3.58
2023-06-29T10:32:44.934Z,3.82
2023-06-29T10:35:26.814Z,3.63
2023-06-29T10:38:09.109Z,3.43
2023-06-29T10:40:55.228Z,3.74
2023-06-29T10:46:23.843Z,3.60
2023-06-29T10:49:14.125Z,3.57
2023-06-29T10:51:57.883Z,3.53
2023-06-29T10:54:37.822Z,3.69
2023-06-29T10:57:17.907Z,3.58
2023-06-29T10:59:57.231Z,3.64
2023-06-29T11:02:36.887Z,3.77
2023-06-29T11:05:26.260Z,3.79
2023-06-29T11:08:05.707Z,3.64
2023-06-29T11:10:47.265Z,3.56
2023-06-29T11:13:28.320Z,3.87
2023-06-29T11:16:07.782Z,3.74
2023-06-29T11:18:56.103Z,3.68
2023-06-29T11:21:40.561Z,3.79
2023-06-29T11:24:23.721Z,3.96
2023-06-29T11:27:03.662Z,3.81
2023-06-29T11:29:43.008Z,3.86
2023-06-29T11:32:24.211Z,4.03
2023-06-29T11:35:07.288Z,3.85
2023-06-29T11:37:51.695Z,3.81
2023-06-29T11:40:32.918Z,4.00
2023-06-29T11:43:12.385Z,3.96
2023-06-29T11:45:52.917Z,3.97
2023-06-29T11:48:32.288Z,3.89
2023-06-29T11:51:12.143Z,4.11
2023-06-29T11:53:56.860Z,3.74
2023-06-29T11:56:43.032Z,3.90
2023-06-29T11:59:22.786Z,4.52
2023-06-29T12:02:02.554Z,4.23
2023-06-29T12:04:42.014Z,4.69
2023-06-29T12:07:21.588Z,4.48
2023-06-29T12:10:10.283Z,4.40
2023-06-29T12:12:57.944Z,4.31
2023-06-29T12:15:40.248Z,4.55
2023-06-29T12:18:21.718Z,4.28
2023-06-29T12:21:01.549Z,4.56
2023-06-29T12:23:41.023Z,4.63
2023-06-29T12:26:27.441Z,4.48
2023-06-29T12:29:06.828Z,4.50
2023-06-29T12:31:46.382Z,4.50
2023-06-29T12:34:25.990Z,4.58
2023-06-29T12:37:05.312Z,4.75
2023-06-29T12:39:44.631Z,4.75
2023-06-29T12:42:30.586Z,5.04
2023-06-29T12:45:10.966Z,5.12
2023-06-29T12:47:50.252Z,4.98
2023-06-29T12:50:29.641Z,5.08
2023-06-29T12:53:08.976Z,5.09
2023-06-29T12:55:48.618Z,5.01
2023-06-29T12:58:34.545Z,5.19
2023-06-29T13:01:14.020Z,5.01
2023-06-29T13:03:53.614Z,5.36
2023-06-29T13:06:38.020Z,5.03
2023-06-29T13:09:17.393Z,5.17
2023-06-29T13:11:56.771Z,4.90
2023-06-29T13:14:41.170Z,5.14
2023-06-29T13:17:20.943Z,4.95
2023-06-29T13:20:00.437Z,5.13
2023-06-29T13:22:40.216Z,5.07
2023-06-29T13:25:19.993Z,5.08
2023-06-29T13:27:59.391Z,4.93
2023-06-29T13:30:43.768Z,4.93
2023-06-29T13:33:24.227Z,5.27
2023-06-29T13:36:03.574Z,4.72
2023-06-29T13:38:42.901Z,4.82
2023-06-29T13:41:22.285Z,4.90
2023-06-29T13:44:01.611Z,5.34
2023-06-29T13:46:46.833Z,5.31
2023-06-29T13:49:26.382Z,5.19
2023-06-29T13:52:05.772Z,5.25
2023-06-29T13:54:45.139Z,5.02
2023-06-29T13:57:25.641Z,5.06
2023-06-29T14:00:05.152Z,4.96
2023-06-29T14:02:51.340Z,4.90
2023-06-29T14:05:32.753Z,5.13
2023-06-29T14:08:13.688Z,5.31
2023-06-29T14:10:53.019Z,5.43
2023-06-29T14:13:33.281Z,4.87
2023-06-29T14:16:13.641Z,4.77
2023-06-29T14:18:58.310Z,4.93
2023-06-29T14:21:38.140Z,4.86
2023-06-29T14:24:17.709Z,5.08
2023-06-29T14:26:57.971Z,4.83
2023-06-29T14:29:37.358Z,4.76
2023-06-29T14:32:16.718Z,4.60
2023-06-29T14:35:01.155Z,4.05
2023-06-29T14:37:40.470Z,4.14
2023-06-29T14:40:20.561Z,3.78
2023-06-29T14:42:59.918Z,3.94
2023-06-29T14:45:39.295Z,3.93
2023-06-29T14:48:19.086Z,4.00
2023-06-29T14:51:03.555Z,4.28
2023-06-29T14:53:43.046Z,4.05
2023-06-29T14:56:22.472Z,3.92
2023-06-29T14:59:01.890Z,4.17
2023-06-29T15:01:41.748Z,4.07
2023-06-29T15:04:21.111Z,5.10
2023-06-29T15:07:05.499Z,4.66
2023-06-29T15:09:45.293Z,4.19
2023-06-29T15:12:26.338Z,4.82
2023-06-29T15:15:05.869Z,4.17
2023-06-29T15:17:45.238Z,4.01
2023-06-29T15:20:24.668Z,3.76
2023-06-29T15:23:09.081Z,4.09
2023-06-29T15:25:48.629Z,3.77
2023-06-29T15:28:28.197Z,4.00
2023-06-29T15:31:07.859Z,4.03
2023-06-29T15:33:47.274Z,3.91
2023-06-29T15:36:26.694Z,3.90
2023-06-29T15:39:11.248Z,3.82
2023-06-29T15:41:51.385Z,3.97
2023-06-29T15:44:30.825Z,4.01
2023-06-29T15:47:10.274Z,4.11
2023-06-29T15:49:49.823Z,4.31
2023-06-29T15:52:29.953Z,4.25
2023-06-29T15:55:15.432Z,4.00
2023-06-29T15:57:55.850Z,3.98
2023-06-29T16:00:39.629Z,4.15
2023-06-29T16:03:19.046Z,4.27
2023-06-29T16:05:58.474Z,4.19
2023-06-29T16:08:37.875Z,4.27
2023-06-29T16:11:22.335Z,4.06
2023-06-29T16:14:02.971Z,4.17
2023-06-29T16:16:42.336Z,3.94
2023-06-29T16:19:21.801Z,3.92
2023-06-29T16:22:01.193Z,4.26
2023-06-29T16:24:41.448Z,4.09
2023-06-29T16:27:25.848Z,3.99
2023-06-29T16:30:05.309Z,3.96
2023-06-29T16:32:44.769Z,4.02
2023-06-29T16:35:24.430Z,4.04
2023-06-29T16:38:03.732Z,4.26
2023-06-29T16:40:43.062Z,4.10
2023-06-29T16:43:27.464Z,4.02
2023-06-29T16:46:06.882Z,4.53
2023-06-29T16:48:46.329Z,4.38
2023-06-29T16:51:25.603Z,4.23
2023-06-29T16:54:06.272Z,4.05
2023-06-29T16:56:45.863Z,4.43
2023-06-29T16:59:31.077Z,4.55
2023-06-29T17:02:10.643Z,4.43
2023-06-29T17:04:50.092Z,4.27
2023-06-29T17:07:29.450Z,4.25
2023-06-29T17:10:08.790Z,4.41
2023-06-29T17:12:48.271Z,4.27
2023-06-29T17:15:32.707Z,4.54
2023-06-29T17:18:12.060Z,4.31
2023-06-29T17:20:51.457Z,4.27
2023-06-29T17:23:30.826Z,4.29
2023-06-29T17:26:11.786Z,4.50
2023-06-29T17:28:51.098Z,4.43
2023-06-29T17:31:35.504Z,4.22
2023-06-29T17:34:14.926Z,4.40
2023-06-29T17:36:54.299Z,4.29
2023-06-29T17:39:33.686Z,4.56
2023-06-29T17:42:13.920Z,4.50
2023-06-29T17:44:53.632Z,4.45
2023-06-29T17:47:38.093Z,4.58
2023-06-29T17:50:18.121Z,4.51
2023-06-29T17:52:57.451Z,4.76
2023-06-29T17:55:36.774Z,4.58
2023-06-29T17:58:16.080Z,4.99
2023-06-29T18:00:55.413Z,4.84
2023-06-29T18:03:40.005Z,4.81
2023-06-29T18:06:20.584Z,4.79
2023-06-29T18:09:00.558Z,4.62
2023-06-29T18:11:39.930Z,4.76
2023-06-29T18:14:19.808Z,4.87
2023-06-29T18:16:59.215Z,5.06
2023-06-29T18:19:43.564Z,4.91
2023-06-29T18:22:23.188Z,4.90
2023-06-29T18:25:02.528Z,4.71
2023-06-29T18:27:41.977Z,4.96
2023-06-29T18:30:21.873Z,4.57
2023-06-29T18:33:01.246Z,4.55
2023-06-29T18:35:45.968Z,4.84
2023-06-29T18:38:25.619Z,4.79
2023-06-29T18:41:10.537Z,4.83
2023-06-29T18:43:49.858Z,4.73
2023-06-29T18:46:29.197Z,4.58
2023-06-29T18:49:08.625Z,4.71
2023-06-29T18:51:53.034Z,4.80
2023-06-29T18:54:32.380Z,4.90
2023-06-29T18:57:13.907Z,4.60
2023-06-29T18:59:53.259Z,4.66
2023-06-29T19:02:33.298Z,4.72
2023-06-29T19:05:13.394Z,4.56
2023-06-29T19:07:58.576Z,4.68
2023-06-29T19:10:37.978Z,4.60
2023-06-29T19:13:17.317Z,4.71
2023-06-29T19:15:56.756Z,4.85
2023-06-29T19:18:36.414Z,4.70
2023-06-29T19:21:15.786Z,4.97
2023-06-29T19:24:00.169Z,5.00
2023-06-29T19:26:39.650Z,5.07
2023-06-29T19:29:19.346Z,5.34
2023-06-29T19:31:58.700Z,5.17
2023-06-29T19:34:38.523Z,5.36
2023-06-29T19:37:17.851Z,5.28
2023-06-29T19:40:02.241Z,5.41
2023-06-29T19:42:41.632Z,5.22
2023-06-29T19:45:20.992Z,5.21
2023-06-29T19:48:00.456Z,5.42
2023-06-29T19:50:39.804Z,5.31
2023-06-29T19:53:19.152Z,5.03
2023-06-29T19:56:04.571Z,5.24
2023-06-29T19:58:43.903Z,5.14
2023-06-29T20:01:23.276Z,5.27
2023-06-29T20:04:02.791Z,5.54
2023-06-29T20:06:42.151Z,5.24
2023-06-29T20:09:21.463Z,5.38
2023-06-29T20:12:05.917Z,5.23
2023-06-29T20:14:45.519Z,5.50
2023-06-29T20:17:24.940Z,5.11
2023-06-29T20:20:05.052Z,5.60
2023-06-29T20:22:44.394Z,5.43
2023-06-29T20:25:23.960Z,5.27
2023-06-29T20:28:08.355Z,5.57
2023-06-29T20:30:48.256Z,5.78
2023-06-29T20:33:27.555Z,5.55
2023-06-29T20:36:07.009Z,5.48
2023-06-29T20:38:46.351Z,5.89
2023-06-29T20:41:25.770Z,5.81
2023-06-29T20:44:16.043Z,6.02
2023-06-29T20:46:55.544Z,5.84
2023-06-29T20:49:35.464Z,5.48
2023-06-29T20:52:15.439Z,5.59
2023-06-29T20:54:54.756Z,5.80
2023-06-29T20:57:39.047Z,5.63
2023-06-29T21:00:24.577Z,6.04
2023-06-29T21:03:03.927Z,6.04
2023-06-29T21:05:43.254Z,5.78
2023-06-29T21:08:22.554Z,6.13
2023-06-29T21:11:01.881Z,6.40
2023-06-29T21:13:41.764Z,5.98
2023-06-29T21:16:27.113Z,5.83
2023-06-29T21:19:07.056Z,6.35
2023-06-29T21:21:47.447Z,6.22
2023-06-29T21:24:27.334Z,5.80
2023-06-29T21:27:06.847Z,6.30
2023-06-29T21:29:48.006Z,6.07
2023-06-29T21:32:32.921Z,6.33
2023-06-29T21:35:13.653Z,6.01
2023-06-29T21:37:53.532Z,6.19
2023-06-29T21:40:32.855Z,6.19
2023-06-29T21:43:12.219Z,6.38
2023-06-29T21:45:52.170Z,6.19
2023-06-29T21:48:38.183Z,6.14
2023-06-29T21:51:17.560Z,5.96
2023-06-29T21:53:56.831Z,5.74
2023-06-29T21:56:36.241Z,6.31
2023-06-29T21:59:15.647Z,6.41
2023-06-29T22:01:55.911Z,6.30
2023-06-29T22:04:40.323Z,6.24
2023-06-29T22:07:19.799Z,6.19
2023-06-29T22:09:59.158Z,6.11
2023-06-29T22:12:40.808Z,6.37
2023-06-29T22:15:21.333Z,6.22
2023-06-29T22:18:00.704Z,6.43
2023-06-29T22:20:45.177Z,5.97
2023-06-29T22:23:24.649Z,6.43
2023-06-29T22:26:04.071Z,6.72
2023-06-29T22:28:43.390Z,6.20
2023-06-29T22:31:22.898Z,6.34
2023-06-29T22:34:02.311Z,6.45
2023-06-29T22:36:46.699Z,6.46
2023-06-29T22:39:26.021Z,6.51
2023-06-29T22:42:05.385Z,6.26
2023-06-29T22:44:44.668Z,6.17
2023-06-29T22:47:24.043Z,6.53
2023-06-29T22:50:03.377Z,6.86
2023-06-29T22:52:47.779Z,6.78
2023-06-29T22:55:27.336Z,6.85
2023-06-29T22:58:06.605Z,6.73
2023-06-29T23:00:45.893Z,6.72
2023-06-29T23:03:25.347Z,6.40
2023-06-29T23:06:04.929Z,6.58
2023-06-29T23:08:49.367Z,6.18
2023-06-29T23:11:33.519Z,6.48
2023-06-29T23:14:17.550Z,6.28
2023-06-29T23:16:56.840Z,6.71
2023-06-29T23:19:36.294Z,6.25
2023-06-29T23:22:15.585Z,6.24
2023-06-29T23:25:00.240Z,6.23
2023-06-29T23:27:43.802Z,6.42
2023-06-29T23:30:23.258Z,6.75
2023-06-29T23:33:02.720Z,6.68
2023-06-29T23:35:42.052Z,6.50
2023-06-29T23:38:21.453Z,6.73
2023-06-29T23:41:05.870Z,6.97
2023-06-29T23:43:45.409Z,6.68
2023-06-29T23:46:27.789Z,6.57
2023-06-29T23:49:08.695Z,7.07
2023-06-29T23:51:49.870Z,6.87
2023-06-29T23:54:29.207Z,6.55
2023-06-29T23:57:16.498Z,6.33
2023-06-29T23:59:55.871Z,6.77
